Time;durP1;ratioP1;P1;durP2;ratioP2;P2;SDS_P1;SDS_P2;PMS_P1;PMS_P2;Temp;Humidity;BMP_temperature;BMP_pressure;BME280_temperature;BME280_humidity;BME280_pressure;Samples;Min_cycle;Max_cycle;Signal;HPM_P1;HPM_P2
2022/03/01 00:01:46;;;;;;;5.70;4.72;;;;;;;;;;5072012;28;21293;-64
2022/03/01 00:04:12;;;;;;;6.65;4.75;;;;;;;;;;5073310;28;20036;-64
2022/03/01 00:06:38;;;;;;;6.63;5.35;;;;;;;;;;5073249;28;20479;-64
2022/03/01 00:09:04;;;;;;;6.97;5.03;;;;;;;;;;5073290;28;20067;-64
2022/03/01 00:11:32;;;;;;;5.97;4.97;;;;;;;;;;5073258;28;20460;-64
2022/03/01 00:13:58;;;;;;;6.68;5.25;;;;;;;;;;5073103;28;20052;-65
2022/03/01 00:16:24;;;;;;;8.30;5.60;;;;;;;;;;5073011;28;20025;-64
2022/03/01 00:18:50;;;;;;;7.47;5.22;;;;;;;;;;5073218;28;20081;-64
2022/03/01 00:21:16;;;;;;;8.68;5.50;;;;;;;;;;5072736;28;20426;-65
2022/03/01 00:23:42;;;;;;;7.90;6.13;;;;;;;;;;5073253;28;20448;-64
2022/03/01 00:26:08;;;;;;;7.90;5.03;;;;;;;;;;5073052;28;20031;-64
2022/03/01 00:28:35;;;;;;;6.60;5.25;;;;;;;;;;5073152;28;20024;-65
2022/03/01 00:31:01;;;;;;;7.40;6.07;;;;;;;;;;5073023;28;20765;-64
2022/03/01 00:33:27;;;;;;;9.02;5.70;;;;;;;;;;5072774;28;20372;-64
2022/03/01 00:35:53;;;;;;;9.20;5.93;;;;;;;;;;5071819;28;20476;-64
2022/03/01 00:38:19;;;;;;;7.28;6.22;;;;;;;;;;5072488;28;20029;-65
2022/03/01 00:40:45;;;;;;;6.50;5.13;;;;;;;;;;5054762;28;20356;-66
2022/03/01 00:43:11;;;;;;;6.65;5.38;;;;;;;;;;5072768;28;20032;-66
2022/03/01 00:45:37;;;;;;;9.35;5.43;;;;;;;;;;5072487;28;20119;-65
2022/03/01 00:48:03;;;;;;;7.95;6.50;;;;;;;;;;5072820;28;20471;-65
2022/03/01 00:50:29;;;;;;;9.05;5.53;;;;;;;;;;5072949;28;20070;-66
2022/03/01 00:52:55;;;;;;;7.38;5.63;;;;;;;;;;5071886;28;20460;-66
2022/03/01 00:55:20;;;;;;;10.20;6.80;;;;;;;;;;5072666;28;20123;-65
2022/03/01 00:57:46;;;;;;;6.68;5.30;;;;;;;;;;5072573;28;20375;-66
2022/03/01 01:00:13;;;;;;;9.60;5.93;;;;;;;;;;5071797;28;20054;-66
2022/03/01 01:02:39;;;;;;;7.80;5.93;;;;;;;;;;5072264;28;20025;-66
2022/03/01 01:05:05;;;;;;;7.82;5.80;;;;;;;;;;5072669;28;20033;-65
2022/03/01 01:07:32;;;;;;;9.85;6.15;;;;;;;;;;5071714;28;20115;-66
2022/03/01 01:09:57;;;;;;;7.10;5.38;;;;;;;;;;5064677;28;20026;-66
2022/03/01 01:12:23;;;;;;;11.27;6.40;;;;;;;;;;5071863;28;20123;-67
2022/03/01 01:14:50;;;;;;;7.50;5.55;;;;;;;;;;5072232;28;20464;-66
2022/03/01 01:17:16;;;;;;;6.85;5.70;;;;;;;;;;5072237;28;20104;-66
2022/03/01 01:19:42;;;;;;;9.40;7.18;;;;;;;;;;5072136;28;20051;-66
2022/03/01 01:24:53;;;;;;;7.97;5.82;;;;;;;;;;5072573;28;20074;-65
2022/03/01 01:27:19;;;;;;;9.52;6.88;;;;;;;;;;5072129;28;20036;-66
2022/03/01 01:29:45;;;;;;;7.10;5.68;;;;;;;;;;5072126;28;20033;-66
2022/03/01 01:32:11;;;;;;;6.13;5.15;;;;;;;;;;5071535;28;20064;-66
2022/03/01 01:34:37;;;;;;;7.95;5.85;;;;;;;;;;5072245;28;20364;-66
2022/03/01 01:37:03;;;;;;;9.65;7.35;;;;;;;;;;5071937;28;20456;-65
2022/03/01 01:39:29;;;;;;;8.10;5.90;;;;;;;;;;5071954;28;20031;-66
2022/03/01 01:41:55;;;;;;;7.20;6.20;;;;;;;;;;5053870;28;20028;-66
2022/03/01 01:44:21;;;;;;;9.48;7.53;;;;;;;;;;5071978;28;20043;-66
2022/03/01 01:46:47;;;;;;;8.18;5.90;;;;;;;;;;5053924;28;20029;-66
2022/03/01 01:49:13;;;;;;;7.80;5.90;;;;;;;;;;5071267;28;20033;-66
2022/03/01 01:51:39;;;;;;;10.20;7.18;;;;;;;;;;5071571;28;20028;-66
2022/03/01 01:54:06;;;;;;;8.38;6.25;;;;;;;;;;5071710;28;20040;-66
2022/03/01 01:56:32;;;;;;;8.88;6.50;;;;;;;;;;5071943;28;20166;-66
2022/03/01 01:58:58;;;;;;;11.30;6.90;;;;;;;;;;5071720;28;20609;-67
2022/03/01 02:01:24;;;;;;;9.10;5.60;;;;;;;;;;5071539;28;20032;-66
2022/03/01 02:03:50;;;;;;;12.82;5.78;;;;;;;;;;5053437;28;20055;-66
2022/03/01 02:06:16;;;;;;;10.27;6.88;;;;;;;;;;5071964;28;20052;-66
2022/03/01 02:08:42;;;;;;;11.32;6.32;;;;;;;;;;5071611;28;20359;-70
2022/03/01 02:11:08;;;;;;;14.07;6.72;;;;;;;;;;5071770;28;20034;-67
2022/03/01 02:13:34;;;;;;;19.50;6.38;;;;;;;;;;5074346;28;20051;-68
2022/03/01 02:16:00;;;;;;;13.70;6.00;;;;;;;;;;5075318;28;20033;-67
2022/03/01 02:18:27;;;;;;;9.98;5.90;;;;;;;;;;5075618;28;20035;-68
2022/03/01 02:20:53;;;;;;;12.00;4.90;;;;;;;;;;5075357;28;20106;-68
2022/03/01 02:23:19;;;;;;;11.13;5.68;;;;;;;;;;5075516;28;20052;-68
2022/03/01 02:25:45;;;;;;;14.27;5.43;;;;;;;;;;5075438;28;20032;-67
2022/03/01 02:28:11;;;;;;;12.40;5.55;;;;;;;;;;5075244;28;20414;-68
2022/03/01 02:30:36;;;;;;;9.82;5.57;;;;;;;;;;5075390;28;20523;-67
2022/03/01 02:33:03;;;;;;;12.98;5.95;;;;;;;;;;5075021;28;20086;-68
2022/03/01 02:35:29;;;;;;;12.10;4.97;;;;;;;;;;5073984;28;20434;-67
2022/03/01 02:37:55;;;;;;;9.55;6.05;;;;;;;;;;5074754;28;20159;-67
2022/03/01 02:40:21;;;;;;;7.50;5.30;;;;;;;;;;5076935;28;20024;-67
2022/03/01 02:42:48;;;;;;;10.95;5.65;;;;;;;;;;5074628;28;20055;-67
2022/03/01 02:45:15;;;;;;;11.70;5.80;;;;;;;;;;5074795;28;20456;-67
2022/03/01 02:47:41;;;;;;;9.80;5.70;;;;;;;;;;5074687;28;20488;-67
2022/03/01 02:50:08;;;;;;;7.63;5.47;;;;;;;;;;5076170;28;20024;-67
2022/03/01 02:52:34;;;;;;;8.88;5.60;;;;;;;;;;5074120;28;20078;-67
2022/03/01 02:55:00;;;;;;;11.18;5.15;;;;;;;;;;5074845;28;20083;-67
2022/03/01 02:57:27;;;;;;;8.00;5.40;;;;;;;;;;5074362;28;20403;-67
2022/03/01 02:59:53;;;;;;;9.70;5.15;;;;;;;;;;5056532;28;20028;-66
2022/03/01 03:02:19;;;;;;;10.68;5.53;;;;;;;;;;5056308;28;20472;-67
2022/03/01 03:04:45;;;;;;;9.30;5.72;;;;;;;;;;5074462;28;20032;-67
2022/03/01 03:07:11;;;;;;;19.70;5.40;;;;;;;;;;5073754;28;20037;-67
2022/03/01 03:09:38;;;;;;;12.15;5.65;;;;;;;;;;5074291;28;20025;-67
2022/03/01 03:12:05;;;;;;;9.55;5.97;;;;;;;;;;5074372;28;20063;-67
2022/03/01 03:14:31;;;;;;;9.85;5.28;;;;;;;;;;5073883;28;20048;-68
2022/03/01 03:16:57;;;;;;;6.28;5.10;;;;;;;;;;5056443;28;20066;-67
2022/03/01 03:19:23;;;;;;;7.40;5.55;;;;;;;;;;5074122;28;20468;-68
2022/03/01 03:21:49;;;;;;;7.53;5.90;;;;;;;;;;5076437;28;20048;-68
2022/03/01 03:24:16;;;;;;;20.00;5.63;;;;;;;;;;5073491;28;20024;-67
2022/03/01 03:26:42;;;;;;;9.02;5.45;;;;;;;;;;5074702;28;20033;-68
2022/03/01 03:29:09;;;;;;;14.48;5.97;;;;;;;;;;5068763;28;20056;-68
2022/03/01 03:31:39;;;;;;;7.93;5.72;;;;;;;;;;5074095;28;20017;-69
2022/03/01 03:34:07;;;;;;;6.45;5.13;;;;;;;;;;5074404;28;20032;-69
2022/03/01 03:36:34;;;;;;;9.40;5.40;;;;;;;;;;5074804;28;20020;-68
2022/03/01 03:39:03;;;;;;;9.88;5.82;;;;;;;;;;5073998;28;20021;-69
2022/03/01 03:41:29;;;;;;;7.28;5.63;;;;;;;;;;5070662;28;20025;-67
2022/03/01 03:43:55;;;;;;;9.27;5.55;;;;;;;;;;5073975;28;20423;-67
2022/03/01 03:46:21;;;;;;;14.02;5.80;;;;;;;;;;5074267;28;20070;-67
2022/03/01 03:48:48;;;;;;;10.68;5.28;;;;;;;;;;5073892;28;20043;-67
2022/03/01 03:51:14;;;;;;;13.45;5.70;;;;;;;;;;5074190;28;20029;-66
2022/03/01 03:53:40;;;;;;;9.00;5.90;;;;;;;;;;5055968;28;20111;-67
2022/03/01 03:56:06;;;;;;;10.55;5.72;;;;;;;;;;5073967;28;20028;-68
2022/03/01 03:58:32;;;;;;;11.85;5.95;;;;;;;;;;5074086;28;20066;-67
2022/03/01 04:00:58;;;;;;;9.60;6.38;;;;;;;;;;5072981;28;20768;-67
2022/03/01 04:03:24;;;;;;;8.43;5.80;;;;;;;;;;5073635;28;20078;-67
2022/03/01 04:05:50;;;;;;;8.45;5.43;;;;;;;;;;5073664;28;20107;-67
2022/03/01 04:08:17;;;;;;;7.07;5.35;;;;;;;;;;5055727;28;20028;-67
2022/03/01 04:10:44;;;;;;;10.52;5.65;;;;;;;;;;5073551;28;20020;-67
2022/03/01 04:13:10;;;;;;;8.90;5.25;;;;;;;;;;5073428;28;20403;-67
2022/03/01 04:15:36;;;;;;;8.35;5.47;;;;;;;;;;5073316;28;20119;-67
2022/03/01 04:18:02;;;;;;;8.55;5.97;;;;;;;;;;5073486;28;20581;-67
2022/03/01 04:20:28;;;;;;;7.95;5.70;;;;;;;;;;5072493;28;20056;-67
2022/03/01 04:22:58;;;;;;;10.00;5.72;;;;;;;;;;5053552;28;20070;-69
2022/03/01 04:25:28;;;;;;;8.50;5.80;;;;;;;;;;5035547;28;20055;-68
2022/03/01 04:27:55;;;;;;;7.97;5.78;;;;;;;;;;5053346;28;20503;-66
2022/03/01 04:30:21;;;;;;;8.43;5.55;;;;;;;;;;5052818;28;20116;-65
2022/03/01 04:32:47;;;;;;;7.70;5.30;;;;;;;;;;5034889;28;20121;-66
2022/03/01 04:35:13;;;;;;;14.82;6.03;;;;;;;;;;5062293;28;20036;-66
2022/03/01 04:37:41;;;;;;;9.50;5.50;;;;;;;;;;5077579;28;20111;-66
2022/03/01 04:40:08;;;;;;;7.55;5.78;;;;;;;;;;5054694;28;20461;-66
2022/03/01 04:42:34;;;;;;;6.85;5.90;;;;;;;;;;5054590;28;20033;-66
2022/03/01 04:45:00;;;;;;;9.77;5.82;;;;;;;;;;5054719;28;20479;-66
2022/03/01 04:47:27;;;;;;;7.05;6.03;;;;;;;;;;5072501;28;20039;-66
2022/03/01 04:49:52;;;;;;;6.05;4.80;;;;;;;;;;5054674;28;20021;-66
2022/03/01 04:52:19;;;;;;;9.27;5.78;;;;;;;;;;5054048;28;20028;-65
2022/03/01 04:54:48;;;;;;;5.70;4.80;;;;;;;;;;5054269;28;20055;-68
2022/03/01 04:57:14;;;;;;;8.13;5.70;;;;;;;;;;5072560;28;20012;-68
2022/03/01 04:59:40;;;;;;;6.50;5.28;;;;;;;;;;5072272;28;20032;-67
2022/03/01 05:02:06;;;;;;;8.07;5.15;;;;;;;;;;5071190;28;20036;-67
2022/03/01 05:04:32;;;;;;;10.05;5.60;;;;;;;;;;5072315;28;20029;-67
2022/03/01 05:06:58;;;;;;;9.35;6.10;;;;;;;;;;5072263;28;20021;-68
2022/03/01 05:09:24;;;;;;;7.10;5.88;;;;;;;;;;5072236;28;20025;-68
2022/03/01 05:11:50;;;;;;;10.63;5.90;;;;;;;;;;5072174;28;20474;-68
2022/03/01 05:14:17;;;;;;;6.55;5.35;;;;;;;;;;5054084;28;20059;-68
2022/03/01 05:16:43;;;;;;;10.88;5.63;;;;;;;;;;5072342;28;20039;-67
2022/03/01 05:19:09;;;;;;;11.57;5.63;;;;;;;;;;5072101;28;20711;-67
2022/03/01 05:21:35;;;;;;;10.02;5.50;;;;;;;;;;5071268;28;20044;-67
2022/03/01 05:24:02;;;;;;;10.75;5.18;;;;;;;;;;5072068;28;20024;-67
2022/03/01 05:26:28;;;;;;;7.80;5.32;;;;;;;;;;5072018;28;20036;-68
2022/03/01 05:28:54;;;;;;;6.32;5.22;;;;;;;;;;5071825;28;20433;-66
2022/03/01 05:31:20;;;;;;;10.38;5.85;;;;;;;;;;5071700;28;20035;-66
2022/03/01 05:33:46;;;;;;;8.50;5.75;;;;;;;;;;5071475;28;20112;-66
2022/03/01 05:36:13;;;;;;;7.63;6.13;;;;;;;;;;5083262;28;20025;-66
2022/03/01 05:38:39;;;;;;;8.80;5.35;;;;;;;;;;5071432;28;20025;-66
2022/03/01 05:41:05;;;;;;;8.40;5.80;;;;;;;;;;5071408;28;20100;-67
2022/03/01 05:43:31;;;;;;;10.57;5.10;;;;;;;;;;5054229;28;20467;-67
2022/03/01 05:45:58;;;;;;;9.07;5.55;;;;;;;;;;5054065;28;20044;-67
2022/03/01 05:48:24;;;;;;;9.95;5.53;;;;;;;;;;5075985;28;20024;-67
2022/03/01 05:50:50;;;;;;;8.73;5.05;;;;;;;;;;5076181;28;20371;-66
2022/03/01 05:53:16;;;;;;;9.57;5.22;;;;;;;;;;5077824;28;20038;-67
2022/03/01 05:55:42;;;;;;;7.22;5.65;;;;;;;;;;5075662;28;20033;-67
2022/03/01 05:58:08;;;;;;;9.00;4.90;;;;;;;;;;5075787;28;20023;-67
2022/03/01 06:00:34;;;;;;;10.73;6.00;;;;;;;;;;5075896;28;20021;-67
2022/03/01 06:03:00;;;;;;;11.57;5.88;;;;;;;;;;5075720;28;20063;-67
2022/03/01 06:05:29;;;;;;;10.13;5.53;;;;;;;;;;5057725;28;20048;-67
2022/03/01 06:07:58;;;;;;;10.27;5.35;;;;;;;;;;5075790;28;20031;-68
2022/03/01 06:10:27;;;;;;;7.10;5.50;;;;;;;;;;5075366;28;20066;-68
2022/03/01 06:12:53;;;;;;;10.27;5.68;;;;;;;;;;5075449;28;20041;-68
2022/03/01 06:15:19;;;;;;;7.57;5.38;;;;;;;;;;5075522;28;20032;-68
2022/03/01 06:17:45;;;;;;;10.25;6.28;;;;;;;;;;5072827;28;20091;-68
2022/03/01 06:20:11;;;;;;;8.55;5.40;;;;;;;;;;5074883;28;20074;-67
2022/03/01 06:22:38;;;;;;;7.35;5.55;;;;;;;;;;5073618;28;20024;-68
2022/03/01 06:25:04;;;;;;;8.23;5.72;;;;;;;;;;5060930;28;20522;-67
2022/03/01 06:27:30;;;;;;;10.00;5.55;;;;;;;;;;5066186;28;20021;-68
2022/03/01 06:29:56;;;;;;;10.35;5.78;;;;;;;;;;5055999;28;20036;-67
2022/03/01 06:32:23;;;;;;;25.02;7.50;;;;;;;;;;5055701;28;20027;-71
2022/03/01 06:34:49;;;;;;;29.50;8.88;;;;;;;;;;5058917;28;20029;-71
2022/03/01 06:37:15;;;;;;;24.15;8.77;;;;;;;;;;5095100;28;20047;-71
2022/03/01 06:39:42;;;;;;;20.55;10.15;;;;;;;;;;5056055;28;20032;-69
2022/03/01 06:42:08;;;;;;;31.80;11.68;;;;;;;;;;5064186;28;20013;-69
2022/03/01 06:44:35;;;;;;;21.98;12.38;;;;;;;;;;5071944;28;20102;-69
2022/03/01 06:47:01;;;;;;;21.95;12.65;;;;;;;;;;5066544;28;20452;-69
2022/03/01 06:49:27;;;;;;;19.92;13.02;;;;;;;;;;5061199;28;20167;-70
2022/03/01 06:51:53;;;;;;;27.30;12.82;;;;;;;;;;5062842;28;20024;-69
2022/03/01 06:54:19;;;;;;;23.45;12.48;;;;;;;;;;5066173;28;20040;-68
2022/03/01 06:56:46;;;;;;;22.63;12.80;;;;;;;;;;5066021;28;20024;-69
2022/03/01 06:59:13;;;;;;;22.38;12.93;;;;;;;;;;5065070;28;20047;-69
2022/03/01 07:01:39;;;;;;;19.85;12.07;;;;;;;;;;5074677;28;20026;-69
2022/03/01 07:04:05;;;;;;;24.25;11.82;;;;;;;;;;5075014;28;20072;-68
2022/03/01 07:06:31;;;;;;;20.42;11.95;;;;;;;;;;5070308;28;20025;-69
2022/03/01 07:08:57;;;;;;;29.42;12.05;;;;;;;;;;5062758;28;20032;-71
2022/03/01 07:11:23;;;;;;;25.35;11.20;;;;;;;;;;5056191;28;20029;-70
2022/03/01 07:13:49;;;;;;;26.52;11.15;;;;;;;;;;5070574;28;20068;-70
2022/03/01 07:16:15;;;;;;;22.50;11.00;;;;;;;;;;5074684;28;20154;-70
2022/03/01 07:18:42;;;;;;;35.35;11.57;;;;;;;;;;5073612;28;20551;-69
2022/03/01 07:21:08;;;;;;;59.35;11.75;;;;;;;;;;5075237;28;20024;-77
2022/03/01 07:23:34;;;;;;;32.17;11.40;;;;;;;;;;5076064;28;20379;-72
2022/03/01 07:26:01;;;;;;;29.05;11.02;;;;;;;;;;5057362;28;20021;-75
2022/03/01 07:28:28;;;;;;;36.28;10.82;;;;;;;;;;5056797;28;20025;-73
2022/03/01 07:30:54;;;;;;;27.73;10.80;;;;;;;;;;5074062;28;20104;-71
2022/03/01 07:33:20;;;;;;;29.70;9.90;;;;;;;;;;5074542;28;20464;-71
2022/03/01 07:35:46;;;;;;;33.63;11.10;;;;;;;;;;5083930;28;20043;-71
2022/03/01 07:38:12;;;;;;;25.38;10.95;;;;;;;;;;5094234;28;20103;-72
2022/03/01 07:40:38;;;;;;;21.23;9.93;;;;;;;;;;5093917;28;20107;-70
2022/03/01 07:43:06;;;;;;;25.25;9.80;;;;;;;;;;5094154;28;20417;-71
2022/03/01 07:45:32;;;;;;;21.88;9.95;;;;;;;;;;5094229;28;20412;-71
2022/03/01 07:48:00;;;;;;;27.38;9.52;;;;;;;;;;5094455;28;20058;-73
2022/03/01 07:50:26;;;;;;;26.10;9.98;;;;;;;;;;5076440;28;20078;-73
2022/03/01 07:52:52;;;;;;;19.33;9.77;;;;;;;;;;5094343;28;20479;-72
2022/03/01 07:55:19;;;;;;;17.33;9.60;;;;;;;;;;5094829;28;20070;-71
2022/03/01 07:57:45;;;;;;;19.55;9.85;;;;;;;;;;5094628;28;20397;-72
2022/03/01 08:00:12;;;;;;;12.07;8.43;;;;;;;;;;5094461;28;20055;-72
2022/03/01 08:02:38;;;;;;;16.92;8.93;;;;;;;;;;5077227;28;20021;-70
2022/03/01 08:05:05;;;;;;;24.85;9.15;;;;;;;;;;5055854;28;20033;-71
2022/03/01 08:07:33;;;;;;;16.35;8.55;;;;;;;;;;5055686;28;20032;-70
2022/03/01 08:09:59;;;;;;;15.10;8.70;;;;;;;;;;5055531;28;20392;-69
2022/03/01 08:12:25;;;;;;;12.02;8.45;;;;;;;;;;5073180;28;20476;-69
2022/03/01 08:14:51;;;;;;;13.77;8.68;;;;;;;;;;5055232;28;20033;-69
2022/03/01 08:17:17;;;;;;;14.65;8.88;;;;;;;;;;5074953;28;20036;-68
2022/03/01 08:19:43;;;;;;;12.20;8.27;;;;;;;;;;5072386;28;20020;-67
2022/03/01 08:22:10;;;;;;;18.70;8.48;;;;;;;;;;5072140;28;20028;-68
2022/03/01 08:24:36;;;;;;;19.83;8.50;;;;;;;;;;5072089;28;20109;-68
2022/03/01 08:27:02;;;;;;;15.20;8.25;;;;;;;;;;5072372;28;20075;-68
2022/03/01 08:29:29;;;;;;;13.65;8.60;;;;;;;;;;5072567;28;20035;-69
2022/03/01 08:31:55;;;;;;;12.10;7.80;;;;;;;;;;5058113;28;20399;-69
2022/03/01 08:34:21;;;;;;;14.40;8.55;;;;;;;;;;5071922;28;20112;-69
2022/03/01 08:36:47;;;;;;;12.50;8.65;;;;;;;;;;5075649;28;20148;-70
2022/03/01 08:39:13;;;;;;;15.30;7.88;;;;;;;;;;5072023;28;20016;-69
2022/03/01 08:41:39;;;;;;;18.75;8.48;;;;;;;;;;5055954;28;20040;-69
2022/03/01 08:44:05;;;;;;;23.33;8.07;;;;;;;;;;5054426;28;20105;-70
2022/03/01 08:46:31;;;;;;;18.40;8.63;;;;;;;;;;5072287;28;20063;-69
2022/03/01 08:48:57;;;;;;;11.65;7.93;;;;;;;;;;5072160;28;20032;-69
2022/03/01 08:51:25;;;;;;;17.92;8.07;;;;;;;;;;5071957;28;20031;-69
2022/03/01 08:53:52;;;;;;;11.35;7.57;;;;;;;;;;5071404;28;20032;-70
2022/03/01 08:56:19;;;;;;;11.50;7.60;;;;;;;;;;5072038;28;20033;-69
2022/03/01 08:58:45;;;;;;;20.00;7.90;;;;;;;;;;5071740;28;20025;-69
2022/03/01 09:01:11;;;;;;;13.75;8.10;;;;;;;;;;5071328;28;20465;-69
2022/03/01 09:03:37;;;;;;;15.57;8.05;;;;;;;;;;5071324;28;20036;-70
2022/03/01 09:06:05;;;;;;;14.55;7.88;;;;;;;;;;5071490;28;20031;-68
2022/03/01 09:08:32;;;;;;;11.48;7.70;;;;;;;;;;5071717;28;20031;-69
2022/03/01 09:10:58;;;;;;;14.52;8.07;;;;;;;;;;5053872;28;20135;-69
2022/03/01 09:13:24;;;;;;;10.25;7.45;;;;;;;;;;5053659;28;20047;-68
2022/03/01 09:15:50;;;;;;;13.25;7.88;;;;;;;;;;5071530;28;20044;-68
2022/03/01 09:18:16;;;;;;;10.55;7.95;;;;;;;;;;5071736;28;20031;-69
2022/03/01 09:20:42;;;;;;;14.18;7.97;;;;;;;;;;5071519;28;20028;-70
2022/03/01 09:23:08;;;;;;;8.82;7.30;;;;;;;;;;5071287;28;20103;-69
2022/03/01 09:25:34;;;;;;;11.65;8.07;;;;;;;;;;5071837;28;20478;-69
2022/03/01 09:28:00;;;;;;;20.25;7.90;;;;;;;;;;5053622;28;20031;-68
2022/03/01 09:30:26;;;;;;;12.32;7.65;;;;;;;;;;5071592;28;20017;-69
2022/03/01 09:32:52;;;;;;;9.85;7.60;;;;;;;;;;5071459;28;20020;-71
2022/03/01 09:35:18;;;;;;;11.68;7.45;;;;;;;;;;5071587;28;20116;-70
2022/03/01 09:37:44;;;;;;;9.30;7.53;;;;;;;;;;5071431;28;20090;-69
2022/03/01 09:40:11;;;;;;;10.57;7.68;;;;;;;;;;5071884;28;20021;-69
2022/03/01 09:42:37;;;;;;;10.30;7.50;;;;;;;;;;5071555;28;20056;-69
2022/03/01 09:45:04;;;;;;;12.75;7.35;;;;;;;;;;5071759;28;20029;-68
2022/03/01 09:47:31;;;;;;;9.70;7.57;;;;;;;;;;5071359;28;20025;-70
2022/03/01 09:49:57;;;;;;;12.68;7.97;;;;;;;;;;5070438;28;20043;-68
2022/03/01 09:52:23;;;;;;;11.23;7.32;;;;;;;;;;5071033;28;20096;-68
2022/03/01 09:54:50;;;;;;;12.45;7.72;;;;;;;;;;5071414;28;20036;-69
2022/03/01 09:57:17;;;;;;;11.93;7.90;;;;;;;;;;5071507;28;20035;-70
2022/03/01 09:59:43;;;;;;;14.85;7.43;;;;;;;;;;5070228;28;20031;-70
2022/03/01 10:02:09;;;;;;;10.77;7.72;;;;;;;;;;5071236;28;20033;-69
2022/03/01 10:04:39;;;;;;;10.88;7.38;;;;;;;;;;5071263;28;20086;-70
2022/03/01 10:07:10;;;;;;;11.98;7.78;;;;;;;;;;5071312;28;20033;-70
2022/03/01 10:09:40;;;;;;;11.13;8.18;;;;;;;;;;5071607;28;20415;-69
2022/03/01 10:12:06;;;;;;;10.25;7.63;;;;;;;;;;5071242;28;20039;-70
2022/03/01 10:14:33;;;;;;;10.85;7.35;;;;;;;;;;5071118;28;20460;-70
2022/03/01 10:17:00;;;;;;;10.55;7.80;;;;;;;;;;5071295;28;20017;-69
2022/03/01 10:19:26;;;;;;;9.38;7.45;;;;;;;;;;5071056;28;20035;-70
2022/03/01 10:21:59;;;;;;;11.65;8.10;;;;;;;;;;5070956;28;20025;-70
2022/03/01 10:24:25;;;;;;;12.15;7.43;;;;;;;;;;5071447;28;20025;-70
2022/03/01 10:26:56;;;;;;;11.40;8.05;;;;;;;;;;5071120;28;20107;-70
2022/03/01 10:29:26;;;;;;;13.07;7.57;;;;;;;;;;5071355;28;20029;-69
2022/03/01 10:31:52;;;;;;;10.25;7.85;;;;;;;;;;5070306;28;20032;-69
2022/03/01 10:34:19;;;;;;;11.02;7.60;;;;;;;;;;5072708;28;20533;-69
2022/03/01 10:36:49;;;;;;;12.57;7.85;;;;;;;;;;5080828;28;20047;-66
2022/03/01 10:39:15;;;;;;;17.88;7.53;;;;;;;;;;5074570;28;20111;-68
2022/03/01 10:41:47;;;;;;;13.10;8.00;;;;;;;;;;5071626;28;20101;-69
2022/03/01 10:44:14;;;;;;;11.50;8.05;;;;;;;;;;5074495;28;20048;-68
2022/03/01 10:46:41;;;;;;;14.43;8.50;;;;;;;;;;5075017;28;20112;-67
2022/03/01 10:49:10;;;;;;;14.85;8.70;;;;;;;;;;5074026;28;20582;-67
2022/03/01 10:51:47;;;;;;;14.45;9.65;;;;;;;;;;5073694;28;20383;-67
2022/03/01 10:54:23;;;;;;;16.10;9.50;;;;;;;;;;5053089;28;20118;-68
2022/03/01 10:56:50;;;;;;;19.85;9.93;;;;;;;;;;5055822;28;20036;-67
2022/03/01 10:59:17;;;;;;;17.00;9.48;;;;;;;;;;5073977;28;20361;-68
2022/03/01 11:01:43;;;;;;;13.93;9.43;;;;;;;;;;5074271;28;20045;-67
2022/03/01 11:04:09;;;;;;;16.13;9.13;;;;;;;;;;5073626;28;20146;-67
2022/03/01 11:06:36;;;;;;;14.50;9.35;;;;;;;;;;5074526;28;20506;-68
2022/03/01 11:09:02;;;;;;;15.98;9.32;;;;;;;;;;5074423;28;20028;-66
2022/03/01 11:11:30;;;;;;;15.60;9.75;;;;;;;;;;5076130;28;20425;-69
2022/03/01 11:13:58;;;;;;;11.80;8.50;;;;;;;;;;5076642;28;20067;-69
2022/03/01 11:16:36;;;;;;;15.15;8.82;;;;;;;;;;5077947;28;20473;-67
2022/03/01 11:19:24;;;;;;;13.55;8.90;;;;;;;;;;5077971;28;20021;-68
2022/03/01 11:21:52;;;;;;;15.50;9.35;;;;;;;;;;5076870;28;20036;-68
2022/03/01 11:24:23;;;;;;;13.20;9.02;;;;;;;;;;5072779;28;20038;-68
2022/03/01 11:26:49;;;;;;;12.35;8.70;;;;;;;;;;5079498;28;20035;-67
2022/03/01 11:29:18;;;;;;;14.25;9.02;;;;;;;;;;5079651;28;20514;-68
2022/03/01 11:31:57;;;;;;;13.32;8.43;;;;;;;;;;5076447;28;20045;-68
2022/03/01 11:34:23;;;;;;;17.02;10.25;;;;;;;;;;5072236;28;20052;-68
2022/03/01 11:36:52;;;;;;;33.88;9.75;;;;;;;;;;5092294;28;20397;-68
2022/03/01 11:39:23;;;;;;;38.55;9.52;;;;;;;;;;5074959;28;20024;-72
2022/03/01 11:41:50;;;;;;;41.03;10.63;;;;;;;;;;5074690;28;20099;-76
2022/03/01 11:44:21;;;;;;;35.10;10.32;;;;;;;;;;5074179;28;20027;-74
2022/03/01 11:46:49;;;;;;;28.77;11.60;;;;;;;;;;5061992;28;20028;-71
2022/03/01 11:49:15;;;;;;;34.60;11.45;;;;;;;;;;5073964;28;20438;-71
2022/03/01 11:51:46;;;;;;;26.40;11.00;;;;;;;;;;5074171;28;20024;-69
2022/03/01 11:54:13;;;;;;;24.27;10.77;;;;;;;;;;5073875;28;20040;-70
2022/03/01 11:56:41;;;;;;;29.73;11.40;;;;;;;;;;5073767;28;20024;-70
2022/03/01 11:59:11;;;;;;;20.10;11.27;;;;;;;;;;5073797;28;20085;-69
2022/03/01 12:01:37;;;;;;;29.63;13.00;;;;;;;;;;5066511;28;20093;-70
2022/03/01 12:04:05;;;;;;;19.52;11.95;;;;;;;;;;5069309;28;20456;-71
2022/03/01 12:06:32;;;;;;;22.15;11.95;;;;;;;;;;5073268;28;20111;-70
2022/03/01 12:08:59;;;;;;;18.83;12.02;;;;;;;;;;5072750;28;20028;-72
2022/03/01 12:11:32;;;;;;;39.38;12.60;;;;;;;;;;5063504;28;20077;-74
2022/03/01 12:14:01;;;;;;;38.92;12.30;;;;;;;;;;5064211;28;20051;-71
2022/03/01 12:16:28;;;;;;;60.67;13.73;;;;;;;;;;5072290;28;20040;-66
2022/03/01 12:19:05;;;;;;;52.22;13.35;;;;;;;;;;5070726;28;20067;-67
2022/03/01 12:21:31;;;;;;;36.30;13.13;;;;;;;;;;5070457;28;20491;-67
2022/03/01 12:23:57;;;;;;;36.13;13.07;;;;;;;;;;5072255;28;20059;-67
2022/03/01 12:26:26;;;;;;;22.38;12.30;;;;;;;;;;5072344;28;20033;-68
2022/03/01 12:28:52;;;;;;;55.78;14.70;;;;;;;;;;5071954;28;20020;-68
2022/03/01 12:31:22;;;;;;;46.83;13.35;;;;;;;;;;5053883;28;20031;-69
2022/03/01 12:34:00;;;;;;;45.05;13.38;;;;;;;;;;5072340;28;20095;-68
2022/03/01 12:36:48;;;;;;;35.92;12.23;;;;;;;;;;5071950;28;20064;-68
2022/03/01 12:39:16;;;;;;;37.35;12.13;;;;;;;;;;5066168;28;20017;-72
2022/03/01 12:41:44;;;;;;;43.88;13.27;;;;;;;;;;5072877;28;20078;-69
2022/03/01 12:44:11;;;;;;;31.67;12.52;;;;;;;;;;5073048;28;20032;-68
2022/03/01 12:46:37;;;;;;;39.33;12.63;;;;;;;;;;5072195;28;20047;-68
2022/03/01 12:49:04;;;;;;;29.08;11.45;;;;;;;;;;5072713;28;20039;-68
2022/03/01 12:51:30;;;;;;;32.08;11.95;;;;;;;;;;5053611;28;20020;-68
2022/03/01 12:54:01;;;;;;;40.92;11.68;;;;;;;;;;5072002;28;20031;-68
2022/03/01 12:56:28;;;;;;;39.63;12.60;;;;;;;;;;5071596;28;20575;-68
2022/03/01 12:58:55;;;;;;;30.17;11.13;;;;;;;;;;5072075;28;20021;-68
2022/03/01 13:01:22;;;;;;;35.80;11.82;;;;;;;;;;5053837;28;20046;-68
2022/03/01 13:03:50;;;;;;;30.30;10.93;;;;;;;;;;5072163;28;20020;-70
2022/03/01 13:06:16;;;;;;;36.20;11.65;;;;;;;;;;5054368;28;20025;-67
2022/03/01 13:08:43;;;;;;;29.15;11.63;;;;;;;;;;5054275;28;20070;-68
2022/03/01 13:11:10;;;;;;;23.08;11.15;;;;;;;;;;5072061;28;20040;-67
2022/03/01 13:13:43;;;;;;;21.95;10.40;;;;;;;;;;5053995;28;20052;-68
2022/03/01 13:16:10;;;;;;;21.92;10.70;;;;;;;;;;5072295;28;20044;-67
2022/03/01 13:18:37;;;;;;;32.75;9.80;;;;;;;;;;5072420;28;20075;-68
2022/03/01 13:21:03;;;;;;;16.98;9.98;;;;;;;;;;5072220;28;20067;-68
2022/03/01 13:23:30;;;;;;;20.90;10.50;;;;;;;;;;5072300;28;20016;-68
2022/03/01 13:25:57;;;;;;;18.85;9.23;;;;;;;;;;5072275;28;20452;-68
2022/03/01 13:28:39;;;;;;;15.25;9.57;;;;;;;;;;5053855;28;20052;-69
2022/03/01 13:31:06;;;;;;;19.13;9.30;;;;;;;;;;5072287;28;20059;-67
2022/03/01 13:33:33;;;;;;;14.18;8.98;;;;;;;;;;5072248;28;20063;-68
2022/03/01 13:36:13;;;;;;;15.27;9.50;;;;;;;;;;5083787;28;20115;-68
2022/03/01 13:38:39;;;;;;;16.27;8.93;;;;;;;;;;5092247;28;20047;-68
2022/03/01 13:41:06;;;;;;;16.58;9.45;;;;;;;;;;5092180;28;20028;-68
2022/03/01 13:43:32;;;;;;;16.70;8.68;;;;;;;;;;5092214;28;20103;-68
2022/03/01 13:46:00;;;;;;;14.38;9.43;;;;;;;;;;5092144;28;20127;-67
2022/03/01 13:48:27;;;;;;;17.38;8.80;;;;;;;;;;5092422;28;20085;-67
2022/03/01 13:51:00;;;;;;;16.77;9.15;;;;;;;;;;5092200;28;20025;-68
2022/03/01 13:53:26;;;;;;;12.05;8.50;;;;;;;;;;5092429;28;20419;-68
2022/03/01 13:55:54;;;;;;;13.82;8.75;;;;;;;;;;5092120;28;20540;-67
2022/03/01 13:58:23;;;;;;;11.90;8.38;;;;;;;;;;5073852;28;20379;-67
2022/03/01 14:00:51;;;;;;;18.17;8.82;;;;;;;;;;5090696;28;20111;-67
2022/03/01 14:03:18;;;;;;;12.95;8.80;;;;;;;;;;5072008;28;20406;-68
2022/03/01 14:06:14;;;;;;;16.73;8.95;;;;;;;;;;5053955;28;20056;-68
2022/03/01 14:08:40;;;;;;;11.68;7.60;;;;;;;;;;5066032;28;20032;-67
2022/03/01 14:11:07;;;;;;;13.43;8.85;;;;;;;;;;5075821;28;20024;-68
2022/03/01 14:13:40;;;;;;;14.55;8.40;;;;;;;;;;5075452;28;20123;-67
2022/03/01 14:16:06;;;;;;;12.68;7.82;;;;;;;;;;5075564;28;20067;-68
2022/03/01 14:18:53;;;;;;;11.02;8.73;;;;;;;;;;5057461;28;20399;-68
2022/03/01 14:21:25;;;;;;;13.07;8.27;;;;;;;;;;5075431;28;20025;-68
2022/03/01 14:23:52;;;;;;;12.55;8.65;;;;;;;;;;5075401;28;20020;-68
2022/03/01 14:26:18;;;;;;;13.50;8.55;;;;;;;;;;5075538;28;20036;-68
2022/03/01 14:28:57;;;;;;;13.82;8.80;;;;;;;;;;5075183;28;20021;-68
2022/03/01 14:31:23;;;;;;;14.38;9.13;;;;;;;;;;5075267;28;20040;-68
2022/03/01 14:33:50;;;;;;;11.45;8.52;;;;;;;;;;5075311;28;20070;-67